Gis-linda — WDF6980 — position and weather

sailwx.info

Track history (hours):
 
Tides and Currents Weather Stations Pressure Air Temp Water Temp Dewpoint Dewpoint Depression Visibility Wind Speed Wind Dir Waves Ship Positions

Gis-linda

Owner: GIS Marine LLC, Galliano, LA. More information available from US FCC via Universal Licensing System and Coast Guard Vessel Documentation Center.

Last reported at 2017-Nov-08 22:04 UTC. Time now 2017-Nov-19 14:25 UTC.
Position N 29°34' W 092°18'.
Warning: this ship's position is 10 days out of date.

Type: Cargo ship. MMSI: 367479870.

Date/timePositionNaut miles runAvg speedWind from/ knotsBaromVisibWave heightAir tempDewpointWater temp
2017-Nov-08 22:04N 29°34' W 092°18'1 7.3
2017-Nov-08 21:59N 29°35' W 092°18'3 6.7
2017-Nov-08 21:31N 29°38' W 092°16'3 6.2
2017-Nov-08 21:01N 29°41' W 092°15'3 6.6
2017-Nov-08 20:31N 29°44' W 092°15'3 6.5
2017-Nov-08 20:01N 29°46' W 092°12'1 2.3
2017-Nov-08 19:31N 29°47' W 092°11'0 0.0
2017-Nov-08 19:01N 29°47' W 092°11'0 0.0
2017-Nov-08 18:31N 29°47' W 092°11'0 0.0
2017-Nov-08 18:01N 29°47' W 092°11'0 0.0
2017-Nov-08 17:31N 29°47' W 092°11'0 0.0
2017-Nov-08 17:01N 29°47' W 092°11'0 0.0
2017-Nov-08 16:31N 29°47' W 092°11'0 0.1
2017-Nov-08 16:01N 29°47' W 092°11'0 0.1
2017-Nov-08 15:31N 29°47' W 092°11'0 0.0
2017-Nov-08 15:01N 29°47' W 092°11'0 0.0
2017-Nov-08 14:31N 29°47' W 092°11'0 0.0
2017-Nov-08 14:01N 29°47' W 092°11'0 0.0
2017-Nov-08 13:31N 29°47' W 092°11'0 0.0
2017-Nov-08 13:01N 29°47' W 092°11'0 0.0
2017-Nov-08 12:31N 29°47' W 092°11'0 0.0
2017-Nov-08 12:01N 29°47' W 092°11'0 0.0
2017-Nov-08 11:31N 29°47' W 092°11'0 0.0
2017-Nov-08 11:01N 29°47' W 092°11'0 0.0
2017-Nov-08 10:31N 29°47' W 092°11'0 0.0
2017-Nov-08 10:00N 29°47' W 092°11'0 0.0
2017-Nov-08 09:31N 29°47' W 092°11'0 0.0
2017-Nov-08 09:01N 29°47' W 092°11'0 0.0
2017-Nov-08 08:31N 29°47' W 092°11'0 0.0
2017-Nov-08 08:01N 29°47' W 092°11'0 0.0
2017-Nov-08 07:31N 29°47' W 092°11'0 0.0
2017-Nov-08 07:01N 29°47' W 092°11'0 0.0
2017-Nov-08 06:31N 29°47' W 092°11'0 0.0
2017-Nov-08 06:01N 29°47' W 092°11'0 0.0
2017-Nov-08 05:31N 29°47' W 092°11'0 0.0
2017-Nov-08 05:01N 29°47' W 092°11'0 0.0
2017-Nov-08 04:31N 29°47' W 092°11'0 0.0
2017-Nov-08 04:01N 29°47' W 092°11'0 0.4
2017-Nov-08 03:31N 29°47' W 092°11'0 0.2
2017-Nov-08 03:01N 29°47' W 092°11'0 0.0
2017-Nov-08 02:31N 29°47' W 092°11'0 0.0
2017-Nov-08 02:01N 29°47' W 092°11'0 0.0
2017-Nov-08 01:30N 29°47' W 092°11'1 1.1
2017-Nov-08 01:01N 29°47' W 092°11'3 5.2
2017-Nov-08 00:31N 29°45' W 092°13'4 8.1
2017-Nov-08 00:00N 29°41' W 092°15'4 7.8
2017-Nov-07 23:31N 29°38' W 092°16'2 0.3
2017-Nov-07 15:27N 29°36' W 092°18'3 7.3
2017-Nov-07 15:01N 29°39' W 092°16'4 7.1
2017-Nov-07 14:30N 29°42' W 092°15'3 6.9
2017-Nov-07 14:00N 29°45' W 092°13'2 4.7
2017-Nov-07 13:30N 29°47' W 092°11'0 0.4
2017-Nov-07 13:01N 29°47' W 092°11'0 0.0
2017-Nov-07 12:31N 29°47' W 092°11'0 0.1
2017-Nov-07 12:01N 29°47' W 092°11'0 0.0
2017-Nov-07 11:31N 29°47' W 092°11'0 0.0
2017-Nov-07 11:01N 29°47' W 092°11'1 1.2
2017-Nov-07 10:31N 29°47' W 092°11'2 4.1
2017-Nov-07 10:01N 29°48' W 092°09'0 0.0
2017-Nov-07 09:30N 29°48' W 092°09'0 0.0
2017-Nov-07 09:01N 29°48' W 092°09'0 0.0
2017-Nov-07 08:31N 29°48' W 092°09'0 0.0
2017-Nov-07 08:01N 29°48' W 092°09'0 0.0
2017-Nov-07 07:31N 29°48' W 092°09'0 0.0
2017-Nov-07 07:00N 29°48' W 092°09'0 0.0
2017-Nov-07 06:31N 29°48' W 092°09'0 0.0
2017-Nov-07 06:01N 29°48' W 092°09'0 0.0
2017-Nov-07 05:31N 29°48' W 092°09'0 0.0
2017-Nov-07 05:01N 29°48' W 092°09'0 0.0
2017-Nov-07 04:31N 29°48' W 092°09'0 0.0
2017-Nov-07 04:01N 29°48' W 092°09'0 0.0
2017-Nov-07 03:30N 29°48' W 092°09'0 0.0
2017-Nov-07 03:01N 29°48' W 092°09'0 0.0
2017-Nov-07 02:31N 29°48' W 092°09'0 0.0
2017-Nov-07 02:01N 29°48' W 092°09'0 0.0
2017-Nov-07 01:31N 29°48' W 092°09'0 0.0
2017-Nov-07 01:00N 29°48' W 092°09'0 0.0
2017-Nov-07 00:31N 29°48' W 092°09'0 0.0
2017-Nov-07 00:01N 29°48' W 092°09'0 0.0
2017-Nov-06 23:30N 29°48' W 092°09'0 0.0
2017-Nov-06 23:01N 29°48' W 092°09'0 0.0
2017-Nov-06 22:31N 29°48' W 092°09'0 0.0
2017-Nov-06 22:01N 29°48' W 092°09'0 0.0
2017-Nov-06 21:31N 29°48' W 092°09'0 0.0
2017-Nov-06 21:01N 29°48' W 092°09'0 0.0
2017-Nov-06 20:30N 29°48' W 092°09'  
2017-Nov-03 16:33N 29°36' W 092°18'0 6.6
2017-Nov-03 16:30N 29°36' W 092°18'3 5.7
2017-Nov-03 16:01N 29°38' W 092°16'3 6.0
2017-Nov-03 15:31N 29°41' W 092°15'3 5.8
2017-Nov-03 15:01N 29°44' W 092°14'3 6.4
2017-Nov-03 14:31N 29°46' W 092°11'3 5.0
2017-Nov-03 14:01N 29°47' W 092°09'0 0.8
2017-Nov-03 13:31N 29°48' W 092°09'0 0.0
2017-Nov-03 13:01N 29°48' W 092°09'0 0.0
2017-Nov-03 12:31N 29°48' W 092°09'0 0.0
2017-Nov-03 12:00N 29°48' W 092°09'0 0.0
2017-Nov-03 11:31N 29°48' W 092°09'0 0.0
2017-Nov-03 11:01N 29°48' W 092°09'0 0.0
2017-Nov-03 10:31N 29°48' W 092°09'0 0.0
2017-Nov-03 10:01N 29°48' W 092°09'0 0.0
2017-Nov-03 09:31N 29°48' W 092°09'0 0.0
2017-Nov-03 09:01N 29°48' W 092°09'0 0.0
2017-Nov-03 08:31N 29°48' W 092°09'0 0.5
2017-Nov-03 08:01N 29°48' W 092°08'2 4.8
2017-Nov-03 07:31N 29°50' W 092°08'3 4.1
2017-Nov-03 06:47N 29°53' W 092°08'1 0.0
2017-Nov-01 18:09N 29°52' W 092°08'  
2017-Oct-30 05:03N 29°36' W 092°17'0 6.7
2017-Oct-30 05:00N 29°36' W 092°17'3 6.2
2017-Oct-30 04:30N 29°39' W 092°16'3 6.6
2017-Oct-30 04:00N 29°43' W 092°15'3 6.9
2017-Oct-30 03:30N 29°45' W 092°12'3 6.7
2017-Oct-30 03:00N 29°47' W 092°09'1 1.3
2017-Oct-30 02:30N 29°47' W 092°09'0 0.0
2017-Oct-30 02:00N 29°47' W 092°09'0 0.0
2017-Oct-30 01:30N 29°47' W 092°09'0 0.0
2017-Oct-30 01:00N 29°47' W 092°09'0 0.0
2017-Oct-30 00:30N 29°47' W 092°09'0 0.0
2017-Oct-30 00:00N 29°47' W 092°09'0 0.0
2017-Oct-29 23:30N 29°47' W 092°09'0 0.0
2017-Oct-29 23:00N 29°47' W 092°09'0 0.0
2017-Oct-29 22:30N 29°47' W 092°09'  
Track history (hours):
 
Tides and Currents Weather Stations Pressure Air Temp Water Temp Dewpoint Dewpoint Depression Visibility Wind Speed Wind Dir Waves Ship Positions

Gis-linda

Owner: GIS Marine LLC, Galliano, LA. More information available from US FCC via Universal Licensing System and Coast Guard Vessel Documentation Center.

Last reported at 2017-Nov-08 22:04 UTC. Time now 2017-Nov-19 14:25 UTC.
Position N 29°34' W 092°18'.
Warning: this ship's position is 10 days out of date.

Type: Cargo ship. MMSI: 367479870.

Date/timePositionNaut miles runAvg speedWind from/ knotsBaromVisibWave heightAir tempDewpointWater temp
2017-Nov-08 22:04N 29°34' W 092°18'1 7.3
2017-Nov-08 21:59N 29°35' W 092°18'3 6.7
2017-Nov-08 21:31N 29°38' W 092°16'3 6.2
2017-Nov-08 21:01N 29°41' W 092°15'3 6.6
2017-Nov-08 20:31N 29°44' W 092°15'3 6.5
2017-Nov-08 20:01N 29°46' W 092°12'1 2.3
2017-Nov-08 19:31N 29°47' W 092°11'0 0.0
2017-Nov-08 19:01N 29°47' W 092°11'0 0.0
2017-Nov-08 18:31N 29°47' W 092°11'0 0.0
2017-Nov-08 18:01N 29°47' W 092°11'0 0.0
2017-Nov-08 17:31N 29°47' W 092°11'0 0.0
2017-Nov-08 17:01N 29°47' W 092°11'0 0.0
2017-Nov-08 16:31N 29°47' W 092°11'0 0.1
2017-Nov-08 16:01N 29°47' W 092°11'0 0.1
2017-Nov-08 15:31N 29°47' W 092°11'0 0.0
2017-Nov-08 15:01N 29°47' W 092°11'0 0.0
2017-Nov-08 14:31N 29°47' W 092°11'0 0.0
2017-Nov-08 14:01N 29°47' W 092°11'0 0.0
2017-Nov-08 13:31N 29°47' W 092°11'0 0.0
2017-Nov-08 13:01N 29°47' W 092°11'0 0.0
2017-Nov-08 12:31N 29°47' W 092°11'0 0.0
2017-Nov-08 12:01N 29°47' W 092°11'0 0.0
2017-Nov-08 11:31N 29°47' W 092°11'0 0.0
2017-Nov-08 11:01N 29°47' W 092°11'0 0.0
2017-Nov-08 10:31N 29°47' W 092°11'0 0.0
2017-Nov-08 10:00N 29°47' W 092°11'0 0.0
2017-Nov-08 09:31N 29°47' W 092°11'0 0.0
2017-Nov-08 09:01N 29°47' W 092°11'0 0.0
2017-Nov-08 08:31N 29°47' W 092°11'0 0.0
2017-Nov-08 08:01N 29°47' W 092°11'0 0.0
2017-Nov-08 07:31N 29°47' W 092°11'0 0.0
2017-Nov-08 07:01N 29°47' W 092°11'0 0.0
2017-Nov-08 06:31N 29°47' W 092°11'0 0.0
2017-Nov-08 06:01N 29°47' W 092°11'0 0.0
2017-Nov-08 05:31N 29°47' W 092°11'0 0.0
2017-Nov-08 05:01N 29°47' W 092°11'0 0.0
2017-Nov-08 04:31N 29°47' W 092°11'0 0.0
2017-Nov-08 04:01N 29°47' W 092°11'0 0.4
2017-Nov-08 03:31N 29°47' W 092°11'0 0.2
2017-Nov-08 03:01N 29°47' W 092°11'0 0.0
2017-Nov-08 02:31N 29°47' W 092°11'0 0.0
2017-Nov-08 02:01N 29°47' W 092°11'0 0.0
2017-Nov-08 01:30N 29°47' W 092°11'1 1.1
2017-Nov-08 01:01N 29°47' W 092°11'3 5.2
2017-Nov-08 00:31N 29°45' W 092°13'4 8.1
2017-Nov-08 00:00N 29°41' W 092°15'4 7.8
2017-Nov-07 23:31N 29°38' W 092°16'2 0.3
2017-Nov-07 15:27N 29°36' W 092°18'3 7.3
2017-Nov-07 15:01N 29°39' W 092°16'4 7.1
2017-Nov-07 14:30N 29°42' W 092°15'3 6.9
2017-Nov-07 14:00N 29°45' W 092°13'2 4.7
2017-Nov-07 13:30N 29°47' W 092°11'0 0.4
2017-Nov-07 13:01N 29°47' W 092°11'0 0.0
2017-Nov-07 12:31N 29°47' W 092°11'0 0.1
2017-Nov-07 12:01N 29°47' W 092°11'0 0.0
2017-Nov-07 11:31N 29°47' W 092°11'0 0.0
2017-Nov-07 11:01N 29°47' W 092°11'1 1.2
2017-Nov-07 10:31N 29°47' W 092°11'2 4.1
2017-Nov-07 10:01N 29°48' W 092°09'0 0.0
2017-Nov-07 09:30N 29°48' W 092°09'0 0.0
2017-Nov-07 09:01N 29°48' W 092°09'0 0.0
2017-Nov-07 08:31N 29°48' W 092°09'0 0.0
2017-Nov-07 08:01N 29°48' W 092°09'0 0.0
2017-Nov-07 07:31N 29°48' W 092°09'0 0.0
2017-Nov-07 07:00N 29°48' W 092°09'0 0.0
2017-Nov-07 06:31N 29°48' W 092°09'0 0.0
2017-Nov-07 06:01N 29°48' W 092°09'0 0.0
2017-Nov-07 05:31N 29°48' W 092°09'0 0.0
2017-Nov-07 05:01N 29°48' W 092°09'0 0.0
2017-Nov-07 04:31N 29°48' W 092°09'0 0.0
2017-Nov-07 04:01N 29°48' W 092°09'0 0.0
2017-Nov-07 03:30N 29°48' W 092°09'0 0.0
2017-Nov-07 03:01N 29°48' W 092°09'0 0.0
2017-Nov-07 02:31N 29°48' W 092°09'0 0.0
2017-Nov-07 02:01N 29°48' W 092°09'0 0.0
2017-Nov-07 01:31N 29°48' W 092°09'0 0.0
2017-Nov-07 01:00N 29°48' W 092°09'0 0.0
2017-Nov-07 00:31N 29°48' W 092°09'0 0.0
2017-Nov-07 00:01N 29°48' W 092°09'0 0.0
2017-Nov-06 23:30N 29°48' W 092°09'0 0.0
2017-Nov-06 23:01N 29°48' W 092°09'0 0.0
2017-Nov-06 22:31N 29°48' W 092°09'0 0.0
2017-Nov-06 22:01N 29°48' W 092°09'0 0.0
2017-Nov-06 21:31N 29°48' W 092°09'0 0.0
2017-Nov-06 21:01N 29°48' W 092°09'0 0.0
2017-Nov-06 20:30N 29°48' W 092°09'  
2017-Nov-03 16:33N 29°36' W 092°18'0 6.6
2017-Nov-03 16:30N 29°36' W 092°18'3 5.7
2017-Nov-03 16:01N 29°38' W 092°16'3 6.0
2017-Nov-03 15:31N 29°41' W 092°15'3 5.8
2017-Nov-03 15:01N 29°44' W 092°14'3 6.4
2017-Nov-03 14:31N 29°46' W 092°11'3 5.0
2017-Nov-03 14:01N 29°47' W 092°09'0 0.8
2017-Nov-03 13:31N 29°48' W 092°09'0 0.0
2017-Nov-03 13:01N 29°48' W 092°09'0 0.0
2017-Nov-03 12:31N 29°48' W 092°09'0 0.0
2017-Nov-03 12:00N 29°48' W 092°09'0 0.0
2017-Nov-03 11:31N 29°48' W 092°09'0 0.0
2017-Nov-03 11:01N 29°48' W 092°09'0 0.0
2017-Nov-03 10:31N 29°48' W 092°09'0 0.0
2017-Nov-03 10:01N 29°48' W 092°09'0 0.0
2017-Nov-03 09:31N 29°48' W 092°09'0 0.0
2017-Nov-03 09:01N 29°48' W 092°09'0 0.0
2017-Nov-03 08:31N 29°48' W 092°09'0 0.5
2017-Nov-03 08:01N 29°48' W 092°08'2 4.8
2017-Nov-03 07:31N 29°50' W 092°08'3 4.1
2017-Nov-03 06:47N 29°53' W 092°08'1 0.0
2017-Nov-01 18:09N 29°52' W 092°08'  
2017-Oct-30 05:03N 29°36' W 092°17'0 6.7
2017-Oct-30 05:00N 29°36' W 092°17'3 6.2
2017-Oct-30 04:30N 29°39' W 092°16'3 6.6
2017-Oct-30 04:00N 29°43' W 092°15'3 6.9
2017-Oct-30 03:30N 29°45' W 092°12'3 6.7
2017-Oct-30 03:00N 29°47' W 092°09'1 1.3
2017-Oct-30 02:30N 29°47' W 092°09'0 0.0
2017-Oct-30 02:00N 29°47' W 092°09'0 0.0
2017-Oct-30 01:30N 29°47' W 092°09'0 0.0
2017-Oct-30 01:00N 29°47' W 092°09'0 0.0
2017-Oct-30 00:30N 29°47' W 092°09'0 0.0
2017-Oct-30 00:00N 29°47' W 092°09'0 0.0
2017-Oct-29 23:30N 29°47' W 092°09'0 0.0
2017-Oct-29 23:00N 29°47' W 092°09'0 0.0
2017-Oct-29 22:30N 29°47' W 092°09'  

Dump ship's entire track history